sensor_id;sensor_type;location;lat;lon;timestamp;P1;durP1;ratioP1;P2;durP2;ratioP2
60308;SDS011;50313;52.894;6.492;2023-02-13T00:00:45;4.57;;;2.58;;
60308;SDS011;50313;52.894;6.492;2023-02-13T00:03:12;9.65;;;2.75;;
60308;SDS011;50313;52.894;6.492;2023-02-13T00:05:38;5.30;;;2.90;;
60308;SDS011;50313;52.894;6.492;2023-02-13T00:08:04;2.10;;;1.95;;
60308;SDS011;50313;52.894;6.492;2023-02-13T00:10:29;16.80;;;2.80;;
60308;SDS011;50313;52.894;6.492;2023-02-13T00:12:55;9.27;;;3.45;;
60308;SDS011;50313;52.894;6.492;2023-02-13T00:15:21;3.50;;;2.70;;
60308;SDS011;50313;52.894;6.492;2023-02-13T00:17:46;1.77;;;1.65;;
60308;SDS011;50313;52.894;6.492;2023-02-13T00:20:12;2.03;;;1.77;;
60308;SDS011;50313;52.894;6.492;2023-02-13T00:22:38;4.78;;;3.20;;
60308;SDS011;50313;52.894;6.492;2023-02-13T00:25:04;3.08;;;2.88;;
60308;SDS011;50313;52.894;6.492;2023-02-13T00:27:32;2.13;;;1.55;;
60308;SDS011;50313;52.894;6.492;2023-02-13T00:29:57;6.90;;;4.07;;
60308;SDS011;50313;52.894;6.492;2023-02-13T00:32:23;5.30;;;4.43;;
60308;SDS011;50313;52.894;6.492;2023-02-13T00:34:49;1.92;;;1.83;;
60308;SDS011;50313;52.894;6.492;2023-02-13T00:37:15;8.07;;;3.08;;
60308;SDS011;50313;52.894;6.492;2023-02-13T00:39:41;3.95;;;2.13;;
60308;SDS011;50313;52.894;6.492;2023-02-13T00:42:07;2.30;;;1.33;;
60308;SDS011;50313;52.894;6.492;2023-02-13T00:44:32;9.15;;;2.75;;
60308;SDS011;50313;52.894;6.492;2023-02-13T00:46:58;7.47;;;3.67;;
60308;SDS011;50313;52.894;6.492;2023-02-13T00:49:24;6.07;;;2.33;;
60308;SDS011;50313;52.894;6.492;2023-02-13T00:51:49;3.83;;;3.20;;
60308;SDS011;50313;52.894;6.492;2023-02-13T00:54:15;2.50;;;2.30;;
60308;SDS011;50313;52.894;6.492;2023-02-13T00:56:41;3.22;;;2.80;;
60308;SDS011;50313;52.894;6.492;2023-02-13T00:59:07;4.30;;;2.85;;
60308;SDS011;50313;52.894;6.492;2023-02-13T01:01:32;3.15;;;2.95;;
60308;SDS011;50313;52.894;6.492;2023-02-13T01:03:58;6.30;;;2.95;;
60308;SDS011;50313;52.894;6.492;2023-02-13T01:06:24;5.85;;;1.75;;
60308;SDS011;50313;52.894;6.492;2023-02-13T01:08:49;11.63;;;4.22;;
60308;SDS011;50313;52.894;6.492;2023-02-13T01:11:15;1.65;;;1.58;;
60308;SDS011;50313;52.894;6.492;2023-02-13T01:13:43;2.75;;;2.53;;
60308;SDS011;50313;52.894;6.492;2023-02-13T01:16:09;8.07;;;3.55;;
60308;SDS011;50313;52.894;6.492;2023-02-13T01:18:35;4.80;;;3.15;;
60308;SDS011;50313;52.894;6.492;2023-02-13T01:21:02;4.00;;;2.90;;
60308;SDS011;50313;52.894;6.492;2023-02-13T01:23:30;5.13;;;2.78;;
60308;SDS011;50313;52.894;6.492;2023-02-13T01:26:02;2.50;;;2.33;;
60308;SDS011;50313;52.894;6.492;2023-02-13T01:28:29;7.63;;;2.58;;
60308;SDS011;50313;52.894;6.492;2023-02-13T01:30:55;6.45;;;3.38;;
60308;SDS011;50313;52.894;6.492;2023-02-13T01:33:22;6.15;;;4.63;;
60308;SDS011;50313;52.894;6.492;2023-02-13T01:35:49;5.10;;;1.65;;
60308;SDS011;50313;52.894;6.492;2023-02-13T01:38:15;3.22;;;2.90;;
60308;SDS011;50313;52.894;6.492;2023-02-13T01:40:45;2.90;;;2.20;;
60308;SDS011;50313;52.894;6.492;2023-02-13T01:43:16;6.20;;;2.17;;
60308;SDS011;50313;52.894;6.492;2023-02-13T01:45:42;7.95;;;2.92;;
60308;SDS011;50313;52.894;6.492;2023-02-13T01:48:16;2.63;;;2.42;;
60308;SDS011;50313;52.894;6.492;2023-02-13T01:50:46;2.80;;;2.17;;
60308;SDS011;50313;52.894;6.492;2023-02-13T01:53:28;4.70;;;2.53;;
60308;SDS011;50313;52.894;6.492;2023-02-13T01:56:02;5.53;;;3.05;;
60308;SDS011;50313;52.894;6.492;2023-02-13T01:58:35;7.18;;;3.63;;
60308;SDS011;50313;52.894;6.492;2023-02-13T02:01:02;5.05;;;2.88;;
60308;SDS011;50313;52.894;6.492;2023-02-13T02:03:34;8.70;;;2.90;;
60308;SDS011;50313;52.894;6.492;2023-02-13T02:06:08;2.90;;;1.73;;
60308;SDS011;50313;52.894;6.492;2023-02-13T02:08:38;2.80;;;1.73;;
60308;SDS011;50313;52.894;6.492;2023-02-13T02:11:06;1.30;;;1.23;;
60308;SDS011;50313;52.894;6.492;2023-02-13T02:13:39;8.23;;;3.78;;
60308;SDS011;50313;52.894;6.492;2023-02-13T02:16:05;5.03;;;2.08;;
60308;SDS011;50313;52.894;6.492;2023-02-13T02:18:31;2.70;;;1.90;;
60308;SDS011;50313;52.894;6.492;2023-02-13T02:21:10;3.97;;;2.80;;
60308;SDS011;50313;52.894;6.492;2023-02-13T02:24:03;6.95;;;1.70;;
60308;SDS011;50313;52.894;6.492;2023-02-13T02:48:13;2.47;;;2.33;;
60308;SDS011;50313;52.894;6.492;2023-02-13T02:51:01;5.88;;;2.35;;
60308;SDS011;50313;52.894;6.492;2023-02-13T02:53:39;4.13;;;2.50;;
60308;SDS011;50313;52.894;6.492;2023-02-13T03:01:39;5.28;;;3.25;;
60308;SDS011;50313;52.894;6.492;2023-02-13T03:04:26;1.75;;;1.65;;
60308;SDS011;50313;52.894;6.492;2023-02-13T03:07:19;4.35;;;2.60;;
60308;SDS011;50313;52.894;6.492;2023-02-13T03:09:51;3.55;;;2.75;;
60308;SDS011;50313;52.894;6.492;2023-02-13T03:15:26;3.75;;;2.17;;
60308;SDS011;50313;52.894;6.492;2023-02-13T03:17:53;2.33;;;1.98;;
60308;SDS011;50313;52.894;6.492;2023-02-13T03:20:57;2.97;;;2.00;;
60308;SDS011;50313;52.894;6.492;2023-02-13T03:24:27;2.22;;;2.03;;
60308;SDS011;50313;52.894;6.492;2023-02-13T03:27:07;5.38;;;4.05;;
60308;SDS011;50313;52.894;6.492;2023-02-13T03:33:04;0.77;;;0.77;;
60308;SDS011;50313;52.894;6.492;2023-02-13T03:41:37;4.38;;;2.50;;
60308;SDS011;50313;52.894;6.492;2023-02-13T03:47:34;3.42;;;2.67;;
60308;SDS011;50313;52.894;6.492;2023-02-13T03:50:01;2.22;;;1.90;;
60308;SDS011;50313;52.894;6.492;2023-02-13T03:55:18;4.13;;;3.72;;
60308;SDS011;50313;52.894;6.492;2023-02-13T04:00:56;1.30;;;1.30;;
60308;SDS011;50313;52.894;6.492;2023-02-13T04:03:26;1.52;;;1.45;;
60308;SDS011;50313;52.894;6.492;2023-02-13T04:06:02;4.45;;;3.97;;
60308;SDS011;50313;52.894;6.492;2023-02-13T04:08:31;2.83;;;2.10;;
60308;SDS011;50313;52.894;6.492;2023-02-13T04:10:59;3.80;;;3.20;;
60308;SDS011;50313;52.894;6.492;2023-02-13T04:13:33;2.53;;;2.35;;
60308;SDS011;50313;52.894;6.492;2023-02-13T04:16:10;4.57;;;1.75;;
60308;SDS011;50313;52.894;6.492;2023-02-13T04:18:45;3.40;;;1.67;;
60308;SDS011;50313;52.894;6.492;2023-02-13T04:21:14;3.22;;;3.00;;
60308;SDS011;50313;52.894;6.492;2023-02-13T04:23:39;2.75;;;2.17;;
60308;SDS011;50313;52.894;6.492;2023-02-13T04:26:07;4.45;;;2.38;;
60308;SDS011;50313;52.894;6.492;2023-02-13T04:28:36;1.67;;;1.58;;
60308;SDS011;50313;52.894;6.492;2023-02-13T04:31:02;2.42;;;1.85;;
60308;SDS011;50313;52.894;6.492;2023-02-13T04:33:28;2.88;;;2.53;;
60308;SDS011;50313;52.894;6.492;2023-02-13T04:35:53;5.70;;;2.67;;
60308;SDS011;50313;52.894;6.492;2023-02-13T04:38:19;7.18;;;4.43;;
60308;SDS011;50313;52.894;6.492;2023-02-13T04:40:45;2.75;;;2.00;;
60308;SDS011;50313;52.894;6.492;2023-02-13T04:43:18;4.53;;;2.63;;
60308;SDS011;50313;52.894;6.492;2023-02-13T04:45:46;15.70;;;2.22;;
60308;SDS011;50313;52.894;6.492;2023-02-13T04:48:15;3.63;;;1.25;;
60308;SDS011;50313;52.894;6.492;2023-02-13T04:50:41;2.95;;;2.22;;
60308;SDS011;50313;52.894;6.492;2023-02-13T04:53:06;1.85;;;1.75;;
60308;SDS011;50313;52.894;6.492;2023-02-13T04:55:32;7.65;;;3.00;;
60308;SDS011;50313;52.894;6.492;2023-02-13T04:57:58;3.50;;;3.20;;
60308;SDS011;50313;52.894;6.492;2023-02-13T05:00:27;1.27;;;1.13;;
60308;SDS011;50313;52.894;6.492;2023-02-13T05:02:53;10.77;;;4.15;;
60308;SDS011;50313;52.894;6.492;2023-02-13T05:05:24;3.25;;;3.00;;
60308;SDS011;50313;52.894;6.492;2023-02-13T05:07:49;5.93;;;2.80;;
60308;SDS011;50313;52.894;6.492;2023-02-13T05:10:15;1.80;;;1.73;;
60308;SDS011;50313;52.894;6.492;2023-02-13T05:12:41;2.85;;;2.65;;
60308;SDS011;50313;52.894;6.492;2023-02-13T05:15:07;8.80;;;2.72;;
60308;SDS011;50313;52.894;6.492;2023-02-13T05:17:33;2.95;;;2.72;;
60308;SDS011;50313;52.894;6.492;2023-02-13T05:20:00;2.58;;;2.38;;
60308;SDS011;50313;52.894;6.492;2023-02-13T05:22:25;3.88;;;2.53;;
60308;SDS011;50313;52.894;6.492;2023-02-13T05:25:09;1.75;;;1.60;;
60308;SDS011;50313;52.894;6.492;2023-02-13T05:27:45;2.35;;;1.55;;
60308;SDS011;50313;52.894;6.492;2023-02-13T05:30:11;8.90;;;1.98;;
60308;SDS011;50313;52.894;6.492;2023-02-13T05:32:37;2.78;;;2.58;;
60308;SDS011;50313;52.894;6.492;2023-02-13T05:35:04;2.25;;;2.10;;
60308;SDS011;50313;52.894;6.492;2023-02-13T05:37:30;1.58;;;1.48;;
60308;SDS011;50313;52.894;6.492;2023-02-13T05:39:56;3.33;;;3.03;;
60308;SDS011;50313;52.894;6.492;2023-02-13T05:42:21;2.05;;;1.80;;
60308;SDS011;50313;52.894;6.492;2023-02-13T05:44:47;3.55;;;2.28;;
60308;SDS011;50313;52.894;6.492;2023-02-13T05:47:13;5.47;;;1.42;;
60308;SDS011;50313;52.894;6.492;2023-02-13T05:49:38;3.28;;;2.88;;
60308;SDS011;50313;52.894;6.492;2023-02-13T05:52:05;8.93;;;3.78;;
60308;SDS011;50313;52.894;6.492;2023-02-13T05:54:31;4.45;;;1.40;;
60308;SDS011;50313;52.894;6.492;2023-02-13T05:56:57;3.28;;;3.08;;
60308;SDS011;50313;52.894;6.492;2023-02-13T05:59:23;2.78;;;2.58;;
60308;SDS011;50313;52.894;6.492;2023-02-13T06:01:48;2.40;;;2.22;;
60308;SDS011;50313;52.894;6.492;2023-02-13T06:04:15;4.38;;;3.28;;
60308;SDS011;50313;52.894;6.492;2023-02-13T06:06:41;2.53;;;2.33;;
60308;SDS011;50313;52.894;6.492;2023-02-13T06:09:07;4.47;;;2.00;;
60308;SDS011;50313;52.894;6.492;2023-02-13T06:11:33;4.50;;;3.03;;
60308;SDS011;50313;52.894;6.492;2023-02-13T06:13:58;4.53;;;2.53;;
60308;SDS011;50313;52.894;6.492;2023-02-13T06:16:24;3.58;;;2.95;;
60308;SDS011;50313;52.894;6.492;2023-02-13T06:18:51;6.85;;;2.58;;
60308;SDS011;50313;52.894;6.492;2023-02-13T06:21:17;2.97;;;2.58;;
60308;SDS011;50313;52.894;6.492;2023-02-13T06:23:42;1.52;;;1.52;;
60308;SDS011;50313;52.894;6.492;2023-02-13T06:26:08;2.08;;;1.85;;
60308;SDS011;50313;52.894;6.492;2023-02-13T06:28:34;7.55;;;2.53;;
60308;SDS011;50313;52.894;6.492;2023-02-13T06:31:00;10.63;;;2.55;;
60308;SDS011;50313;52.894;6.492;2023-02-13T06:33:26;4.15;;;3.35;;
60308;SDS011;50313;52.894;6.492;2023-02-13T06:35:52;2.83;;;1.42;;
60308;SDS011;50313;52.894;6.492;2023-02-13T06:38:18;5.57;;;2.42;;
60308;SDS011;50313;52.894;6.492;2023-02-13T06:40:45;4.72;;;2.90;;
60308;SDS011;50313;52.894;6.492;2023-02-13T06:43:11;6.68;;;4.07;;
60308;SDS011;50313;52.894;6.492;2023-02-13T06:45:38;3.55;;;3.22;;
60308;SDS011;50313;52.894;6.492;2023-02-13T06:48:04;6.32;;;2.55;;
60308;SDS011;50313;52.894;6.492;2023-02-13T06:50:30;5.15;;;2.15;;
60308;SDS011;50313;52.894;6.492;2023-02-13T06:52:56;4.53;;;4.13;;
60308;SDS011;50313;52.894;6.492;2023-02-13T06:55:22;2.45;;;2.22;;
60308;SDS011;50313;52.894;6.492;2023-02-13T06:57:49;2.33;;;2.20;;
60308;SDS011;50313;52.894;6.492;2023-02-13T07:00:15;5.82;;;3.67;;
60308;SDS011;50313;52.894;6.492;2023-02-13T07:02:43;2.70;;;2.50;;
60308;SDS011;50313;52.894;6.492;2023-02-13T07:05:10;3.00;;;2.83;;
60308;SDS011;50313;52.894;6.492;2023-02-13T07:07:36;2.13;;;2.03;;
60308;SDS011;50313;52.894;6.492;2023-02-13T07:10:03;3.95;;;3.63;;
60308;SDS011;50313;52.894;6.492;2023-02-13T07:12:34;3.25;;;2.33;;
60308;SDS011;50313;52.894;6.492;2023-02-13T07:15:01;4.68;;;3.22;;
60308;SDS011;50313;52.894;6.492;2023-02-13T07:17:27;2.35;;;1.55;;
60308;SDS011;50313;52.894;6.492;2023-02-13T07:19:53;4.05;;;2.70;;
60308;SDS011;50313;52.894;6.492;2023-02-13T07:22:19;2.53;;;2.42;;
60308;SDS011;50313;52.894;6.492;2023-02-13T07:24:45;5.15;;;2.58;;
60308;SDS011;50313;52.894;6.492;2023-02-13T07:27:10;5.28;;;3.13;;
60308;SDS011;50313;52.894;6.492;2023-02-13T07:29:36;1.35;;;1.25;;
60308;SDS011;50313;52.894;6.492;2023-02-13T07:32:02;2.72;;;2.53;;
60308;SDS011;50313;52.894;6.492;2023-02-13T07:34:28;2.40;;;2.20;;
60308;SDS011;50313;52.894;6.492;2023-02-13T07:36:53;6.03;;;4.07;;
60308;SDS011;50313;52.894;6.492;2023-02-13T07:39:19;10.50;;;5.25;;
60308;SDS011;50313;52.894;6.492;2023-02-13T07:41:45;5.35;;;1.98;;
60308;SDS011;50313;52.894;6.492;2023-02-13T07:44:10;2.92;;;1.88;;
60308;SDS011;50313;52.894;6.492;2023-02-13T07:46:36;2.33;;;1.83;;
60308;SDS011;50313;52.894;6.492;2023-02-13T07:49:02;3.65;;;2.15;;
60308;SDS011;50313;52.894;6.492;2023-02-13T07:51:27;2.60;;;2.50;;
60308;SDS011;50313;52.894;6.492;2023-02-13T07:53:53;0.43;;;0.43;;
60308;SDS011;50313;52.894;6.492;2023-02-13T07:56:19;1.60;;;1.40;;
60308;SDS011;50313;52.894;6.492;2023-02-13T07:58:45;6.60;;;4.05;;
60308;SDS011;50313;52.894;6.492;2023-02-13T08:01:12;1.58;;;1.10;;
60308;SDS011;50313;52.894;6.492;2023-02-13T08:03:39;2.53;;;2.00;;
60308;SDS011;50313;52.894;6.492;2023-02-13T08:06:05;6.30;;;3.67;;
60308;SDS011;50313;52.894;6.492;2023-02-13T08:08:31;3.10;;;2.47;;
60308;SDS011;50313;52.894;6.492;2023-02-13T08:11:01;4.15;;;3.58;;
60308;SDS011;50313;52.894;6.492;2023-02-13T08:13:48;8.02;;;2.83;;
60308;SDS011;50313;52.894;6.492;2023-02-13T08:16:14;3.60;;;1.48;;
60308;SDS011;50313;52.894;6.492;2023-02-13T08:18:40;1.17;;;0.95;;
60308;SDS011;50313;52.894;6.492;2023-02-13T08:21:06;2.38;;;2.20;;
60308;SDS011;50313;52.894;6.492;2023-02-13T08:23:31;5.18;;;3.65;;
60308;SDS011;50313;52.894;6.492;2023-02-13T08:26:00;5.22;;;3.55;;
60308;SDS011;50313;52.894;6.492;2023-02-13T08:28:27;8.05;;;2.78;;
60308;SDS011;50313;52.894;6.492;2023-02-13T08:30:53;4.13;;;1.60;;
60308;SDS011;50313;52.894;6.492;2023-02-13T08:33:19;1.55;;;1.55;;
60308;SDS011;50313;52.894;6.492;2023-02-13T08:35:45;2.10;;;1.92;;
60308;SDS011;50313;52.894;6.492;2023-02-13T08:38:11;2.03;;;1.88;;
60308;SDS011;50313;52.894;6.492;2023-02-13T08:40:36;2.70;;;2.50;;
60308;SDS011;50313;52.894;6.492;2023-02-13T08:43:04;3.85;;;3.38;;
60308;SDS011;50313;52.894;6.492;2023-02-13T08:45:31;5.57;;;1.85;;
60308;SDS011;50313;52.894;6.492;2023-02-13T08:47:57;5.10;;;2.50;;
60308;SDS011;50313;52.894;6.492;2023-02-13T08:50:24;5.13;;;4.53;;
60308;SDS011;50313;52.894;6.492;2023-02-13T08:52:51;4.93;;;3.78;;
60308;SDS011;50313;52.894;6.492;2023-02-13T08:55:17;5.20;;;2.78;;
60308;SDS011;50313;52.894;6.492;2023-02-13T08:57:43;7.90;;;3.65;;
60308;SDS011;50313;52.894;6.492;2023-02-13T09:00:09;5.28;;;3.05;;
60308;SDS011;50313;52.894;6.492;2023-02-13T09:02:35;3.03;;;2.55;;
60308;SDS011;50313;52.894;6.492;2023-02-13T09:05:01;9.32;;;2.38;;
60308;SDS011;50313;52.894;6.492;2023-02-13T09:07:26;4.78;;;4.32;;
60308;SDS011;50313;52.894;6.492;2023-02-13T09:09:52;5.95;;;4.70;;
60308;SDS011;50313;52.894;6.492;2023-02-13T09:12:18;6.88;;;2.45;;
60308;SDS011;50313;52.894;6.492;2023-02-13T09:14:43;2.58;;;1.90;;
60308;SDS011;50313;52.894;6.492;2023-02-13T09:17:09;6.45;;;2.20;;
60308;SDS011;50313;52.894;6.492;2023-02-13T09:19:35;7.80;;;2.90;;
60308;SDS011;50313;52.894;6.492;2023-02-13T09:22:00;1.75;;;1.65;;
60308;SDS011;50313;52.894;6.492;2023-02-13T09:24:26;1.15;;;1.10;;
60308;SDS011;50313;52.894;6.492;2023-02-13T09:26:52;6.97;;;3.25;;
60308;SDS011;50313;52.894;6.492;2023-02-13T09:29:18;3.22;;;2.95;;
60308;SDS011;50313;52.894;6.492;2023-02-13T09:31:43;3.75;;;2.95;;
60308;SDS011;50313;52.894;6.492;2023-02-13T09:34:09;11.05;;;2.45;;
60308;SDS011;50313;52.894;6.492;2023-02-13T09:36:35;2.65;;;2.45;;
60308;SDS011;50313;52.894;6.492;2023-02-13T09:39:00;2.35;;;1.70;;
60308;SDS011;50313;52.894;6.492;2023-02-13T09:41:27;1.60;;;1.50;;
60308;SDS011;50313;52.894;6.492;2023-02-13T09:44:01;7.57;;;1.67;;
60308;SDS011;50313;52.894;6.492;2023-02-13T09:46:58;2.83;;;1.88;;
60308;SDS011;50313;52.894;6.492;2023-02-13T09:49:35;3.28;;;2.50;;
60308;SDS011;50313;52.894;6.492;2023-02-13T09:52:04;3.13;;;2.60;;
60308;SDS011;50313;52.894;6.492;2023-02-13T09:54:30;3.08;;;2.25;;
60308;SDS011;50313;52.894;6.492;2023-02-13T09:56:58;1.65;;;1.55;;
60308;SDS011;50313;52.894;6.492;2023-02-13T10:02:22;5.20;;;2.25;;
60308;SDS011;50313;52.894;6.492;2023-02-13T10:10:07;3.65;;;1.95;;
60308;SDS011;50313;52.894;6.492;2023-02-13T10:18:04;5.65;;;3.40;;
60308;SDS011;50313;52.894;6.492;2023-02-13T10:20:36;6.47;;;3.38;;
60308;SDS011;50313;52.894;6.492;2023-02-13T10:23:18;1.55;;;1.20;;
60308;SDS011;50313;52.894;6.492;2023-02-13T10:26:30;3.88;;;2.47;;
60308;SDS011;50313;52.894;6.492;2023-02-13T10:29:22;3.67;;;3.35;;
60308;SDS011;50313;52.894;6.492;2023-02-13T10:32:29;2.58;;;1.73;;
60308;SDS011;50313;52.894;6.492;2023-02-13T10:35:01;3.53;;;2.53;;
60308;SDS011;50313;52.894;6.492;2023-02-13T10:37:29;8.80;;;3.03;;
60308;SDS011;50313;52.894;6.492;2023-02-13T10:39:54;2.85;;;2.38;;
60308;SDS011;50313;52.894;6.492;2023-02-13T10:45:04;8.07;;;2.35;;
60308;SDS011;50313;52.894;6.492;2023-02-13T10:50:30;4.05;;;2.33;;
60308;SDS011;50313;52.894;6.492;2023-02-13T11:04:17;5.47;;;2.97;;
60308;SDS011;50313;52.894;6.492;2023-02-13T11:06:51;7.55;;;2.45;;
60308;SDS011;50313;52.894;6.492;2023-02-13T11:09:22;11.93;;;3.30;;
60308;SDS011;50313;52.894;6.492;2023-02-13T11:11:48;9.25;;;4.53;;
60308;SDS011;50313;52.894;6.492;2023-02-13T11:19:45;6.70;;;3.00;;
60308;SDS011;50313;52.894;6.492;2023-02-13T11:22:27;3.50;;;2.53;;
60308;SDS011;50313;52.894;6.492;2023-02-13T11:25:17;6.75;;;2.72;;
60308;SDS011;50313;52.894;6.492;2023-02-13T11:27:49;5.35;;;3.90;;
60308;SDS011;50313;52.894;6.492;2023-02-13T11:30:32;13.27;;;5.25;;
60308;SDS011;50313;52.894;6.492;2023-02-13T11:33:04;5.40;;;2.40;;
60308;SDS011;50313;52.894;6.492;2023-02-13T11:35:43;9.48;;;5.55;;
60308;SDS011;50313;52.894;6.492;2023-02-13T11:41:05;7.95;;;4.60;;
60308;SDS011;50313;52.894;6.492;2023-02-13T11:43:48;6.88;;;4.03;;
60308;SDS011;50313;52.894;6.492;2023-02-13T11:46:18;6.60;;;2.38;;
60308;SDS011;50313;52.894;6.492;2023-02-13T11:49:02;4.05;;;3.67;;
60308;SDS011;50313;52.894;6.492;2023-02-13T11:51:43;3.72;;;3.42;;
60308;SDS011;50313;52.894;6.492;2023-02-13T11:54:20;3.40;;;3.00;;
60308;SDS011;50313;52.894;6.492;2023-02-13T11:56:56;4.18;;;3.78;;
60308;SDS011;50313;52.894;6.492;2023-02-13T11:59:24;11.45;;;4.45;;
60308;SDS011;50313;52.894;6.492;2023-02-13T12:02:12;4.75;;;2.90;;
60308;SDS011;50313;52.894;6.492;2023-02-13T12:04:38;5.13;;;3.22;;
60308;SDS011;50313;52.894;6.492;2023-02-13T12:10:00;9.10;;;3.78;;
60308;SDS011;50313;52.894;6.492;2023-02-13T12:12:37;8.43;;;4.68;;
60308;SDS011;50313;52.894;6.492;2023-02-13T12:15:48;6.15;;;3.72;;
60308;SDS011;50313;52.894;6.492;2023-02-13T12:24:02;7.13;;;4.50;;
60308;SDS011;50313;52.894;6.492;2023-02-13T12:26:49;9.23;;;3.88;;
60308;SDS011;50313;52.894;6.492;2023-02-13T12:29:56;15.43;;;8.23;;
60308;SDS011;50313;52.894;6.492;2023-02-13T12:42:05;8.05;;;6.07;;
60308;SDS011;50313;52.894;6.492;2023-02-13T12:52:23;6.25;;;3.75;;
60308;SDS011;50313;52.894;6.492;2023-02-13T12:55:45;7.88;;;3.80;;
60308;SDS011;50313;52.894;6.492;2023-02-13T13:03:35;13.25;;;4.55;;
60308;SDS011;50313;52.894;6.492;2023-02-13T13:06:12;7.05;;;2.60;;
60308;SDS011;50313;52.894;6.492;2023-02-13T13:16:52;11.98;;;5.50;;
60308;SDS011;50313;52.894;6.492;2023-02-13T13:19:31;10.32;;;5.65;;
60308;SDS011;50313;52.894;6.492;2023-02-13T13:22:06;11.52;;;5.03;;
60308;SDS011;50313;52.894;6.492;2023-02-13T13:27:56;14.38;;;5.60;;
60308;SDS011;50313;52.894;6.492;2023-02-13T13:30:30;9.95;;;5.50;;
60308;SDS011;50313;52.894;6.492;2023-02-13T13:33:02;9.95;;;4.03;;
60308;SDS011;50313;52.894;6.492;2023-02-13T13:35:34;13.23;;;5.05;;
60308;SDS011;50313;52.894;6.492;2023-02-13T13:38:22;11.07;;;5.25;;
60308;SDS011;50313;52.894;6.492;2023-02-13T13:42:10;6.22;;;3.72;;
60308;SDS011;50313;52.894;6.492;2023-02-13T13:44:26;4.10;;;3.67;;
60308;SDS011;50313;52.894;6.492;2023-02-13T13:50:00;10.07;;;6.10;;
60308;SDS011;50313;52.894;6.492;2023-02-13T13:52:33;9.65;;;3.58;;
60308;SDS011;50313;52.894;6.492;2023-02-13T13:55:03;8.07;;;4.28;;
60308;SDS011;50313;52.894;6.492;2023-02-13T14:00:27;10.60;;;3.72;;
60308;SDS011;50313;52.894;6.492;2023-02-13T14:07:56;22.70;;;6.68;;
60308;SDS011;50313;52.894;6.492;2023-02-13T14:20:49;8.75;;;5.18;;
60308;SDS011;50313;52.894;6.492;2023-02-13T14:31:18;11.23;;;4.50;;
60308;SDS011;50313;52.894;6.492;2023-02-13T14:33:58;11.10;;;5.47;;
60308;SDS011;50313;52.894;6.492;2023-02-13T14:36:33;7.30;;;5.47;;
60308;SDS011;50313;52.894;6.492;2023-02-13T14:39:06;15.60;;;8.65;;
60308;SDS011;50313;52.894;6.492;2023-02-13T14:44:13;10.48;;;5.95;;
60308;SDS011;50313;52.894;6.492;2023-02-13T14:46:48;16.60;;;7.18;;
60308;SDS011;50313;52.894;6.492;2023-02-13T14:49:16;6.82;;;5.35;;
60308;SDS011;50313;52.894;6.492;2023-02-13T14:51:47;10.43;;;6.22;;
60308;SDS011;50313;52.894;6.492;2023-02-13T14:56:45;8.98;;;5.68;;
60308;SDS011;50313;52.894;6.492;2023-02-13T14:59:15;9.43;;;5.53;;
60308;SDS011;50313;52.894;6.492;2023-02-13T15:04:20;11.45;;;5.47;;
60308;SDS011;50313;52.894;6.492;2023-02-13T15:06:49;8.52;;;4.90;;
60308;SDS011;50313;52.894;6.492;2023-02-13T15:09:51;7.18;;;5.25;;
60308;SDS011;50313;52.894;6.492;2023-02-13T15:12:50;9.32;;;5.18;;
60308;SDS011;50313;52.894;6.492;2023-02-13T15:15:23;10.73;;;7.07;;
60308;SDS011;50313;52.894;6.492;2023-02-13T15:17:57;13.80;;;7.25;;
60308;SDS011;50313;52.894;6.492;2023-02-13T15:20:29;9.90;;;6.85;;
60308;SDS011;50313;52.894;6.492;2023-02-13T15:22:58;21.45;;;6.30;;
60308;SDS011;50313;52.894;6.492;2023-02-13T15:25:45;7.03;;;4.68;;
60308;SDS011;50313;52.894;6.492;2023-02-13T15:28:17;12.05;;;7.25;;
60308;SDS011;50313;52.894;6.492;2023-02-13T15:33:20;15.23;;;8.18;;
60308;SDS011;50313;52.894;6.492;2023-02-13T15:35:54;12.32;;;5.30;;
60308;SDS011;50313;52.894;6.492;2023-02-13T15:38:25;19.08;;;5.90;;
60308;SDS011;50313;52.894;6.492;2023-02-13T15:40:51;10.38;;;5.93;;
60308;SDS011;50313;52.894;6.492;2023-02-13T15:46:04;8.70;;;4.57;;
60308;SDS011;50313;52.894;6.492;2023-02-13T15:48:41;8.57;;;5.07;;
60308;SDS011;50313;52.894;6.492;2023-02-13T15:51:08;6.97;;;4.90;;
60308;SDS011;50313;52.894;6.492;2023-02-13T15:53:33;12.75;;;5.70;;
60308;SDS011;50313;52.894;6.492;2023-02-13T15:56:00;9.45;;;5.30;;
60308;SDS011;50313;52.894;6.492;2023-02-13T15:58:29;11.50;;;6.68;;
60308;SDS011;50313;52.894;6.492;2023-02-13T16:01:01;9.80;;;5.82;;
60308;SDS011;50313;52.894;6.492;2023-02-13T16:03:30;5.90;;;4.55;;
60308;SDS011;50313;52.894;6.492;2023-02-13T16:05:58;21.38;;;4.95;;
60308;SDS011;50313;52.894;6.492;2023-02-13T16:08:35;12.43;;;6.53;;
60308;SDS011;50313;52.894;6.492;2023-02-13T16:14:14;4.55;;;4.15;;
60308;SDS011;50313;52.894;6.492;2023-02-13T16:19:21;5.70;;;4.85;;
60308;SDS011;50313;52.894;6.492;2023-02-13T16:21:59;8.43;;;4.60;;
60308;SDS011;50313;52.894;6.492;2023-02-13T16:24:31;9.23;;;4.45;;
60308;SDS011;50313;52.894;6.492;2023-02-13T16:26:57;8.18;;;4.97;;
60308;SDS011;50313;52.894;6.492;2023-02-13T16:29:24;7.18;;;6.18;;
60308;SDS011;50313;52.894;6.492;2023-02-13T16:31:51;9.20;;;5.97;;
60308;SDS011;50313;52.894;6.492;2023-02-13T16:36:50;12.68;;;5.25;;
60308;SDS011;50313;52.894;6.492;2023-02-13T16:42:01;15.00;;;5.18;;
60308;SDS011;50313;52.894;6.492;2023-02-13T16:44:43;3.47;;;3.17;;
60308;SDS011;50313;52.894;6.492;2023-02-13T16:47:11;12.10;;;5.85;;
60308;SDS011;50313;52.894;6.492;2023-02-13T16:49:49;8.18;;;3.63;;
60308;SDS011;50313;52.894;6.492;2023-02-13T16:52:20;6.97;;;5.07;;
60308;SDS011;50313;52.894;6.492;2023-02-13T16:54:59;11.85;;;5.97;;
60308;SDS011;50313;52.894;6.492;2023-02-13T16:57:33;7.00;;;4.78;;
60308;SDS011;50313;52.894;6.492;2023-02-13T17:02:46;10.32;;;5.60;;
60308;SDS011;50313;52.894;6.492;2023-02-13T17:05:21;8.75;;;5.45;;
60308;SDS011;50313;52.894;6.492;2023-02-13T17:07:51;7.10;;;6.40;;
60308;SDS011;50313;52.894;6.492;2023-02-13T17:10:27;19.25;;;6.97;;
60308;SDS011;50313;52.894;6.492;2023-02-13T17:13:01;13.00;;;5.90;;
60308;SDS011;50313;52.894;6.492;2023-02-13T17:15:28;5.80;;;4.88;;
60308;SDS011;50313;52.894;6.492;2023-02-13T17:17:55;14.43;;;5.88;;
60308;SDS011;50313;52.894;6.492;2023-02-13T17:20:23;14.65;;;7.65;;
60308;SDS011;50313;52.894;6.492;2023-02-13T17:22:50;19.42;;;9.13;;
60308;SDS011;50313;52.894;6.492;2023-02-13T17:25:18;10.32;;;6.97;;
60308;SDS011;50313;52.894;6.492;2023-02-13T17:27:50;10.80;;;5.88;;
60308;SDS011;50313;52.894;6.492;2023-02-13T17:30:22;13.18;;;5.63;;
60308;SDS011;50313;52.894;6.492;2023-02-13T17:32:50;5.57;;;5.05;;
60308;SDS011;50313;52.894;6.492;2023-02-13T17:35:19;14.40;;;8.27;;
60308;SDS011;50313;52.894;6.492;2023-02-13T17:37:45;13.10;;;4.57;;
60308;SDS011;50313;52.894;6.492;2023-02-13T17:40:20;9.55;;;5.03;;
60308;SDS011;50313;52.894;6.492;2023-02-13T17:42:50;6.88;;;5.35;;
60308;SDS011;50313;52.894;6.492;2023-02-13T17:45:19;7.15;;;5.82;;
60308;SDS011;50313;52.894;6.492;2023-02-13T17:47:47;5.18;;;2.72;;
60308;SDS011;50313;52.894;6.492;2023-02-13T17:50:28;13.60;;;7.05;;
60308;SDS011;50313;52.894;6.492;2023-02-13T17:52:55;9.23;;;6.22;;
60308;SDS011;50313;52.894;6.492;2023-02-13T17:55:26;14.93;;;6.18;;
60308;SDS011;50313;52.894;6.492;2023-02-13T17:57:54;5.15;;;3.78;;
60308;SDS011;50313;52.894;6.492;2023-02-13T18:00:21;9.20;;;7.32;;
60308;SDS011;50313;52.894;6.492;2023-02-13T18:02:48;3.25;;;2.78;;
60308;SDS011;50313;52.894;6.492;2023-02-13T18:05:15;15.75;;;10.88;;
60308;SDS011;50313;52.894;6.492;2023-02-13T18:07:42;24.45;;;12.65;;
60308;SDS011;50313;52.894;6.492;2023-02-13T18:10:12;16.63;;;7.78;;
60308;SDS011;50313;52.894;6.492;2023-02-13T18:12:40;7.35;;;4.95;;